Time;durP1;ratioP1;P1;durP2;ratioP2;P2;SDS_P1;SDS_P2;PMS_P1;PMS_P2;Temp;Humidity;BMP_temperature;BMP_pressure;BME280_temperature;BME280_humidity;BME280_pressure;Samples;Min_cycle;Max_cycle;Signal;HPM_P1;HPM_P2
2022/09/01 00:01:38;;;;;;;32.40;21.00;;;16.40;94.70;;;;;;5023871;28;20459;-73
2022/09/01 00:04:05;;;;;;;34.27;20.70;;;16.30;94.90;;;;;;5010991;28;20446;-69
2022/09/01 00:06:33;;;;;;;32.90;20.27;;;16.30;95.10;;;;;;5028008;28;20527;-70
2022/09/01 00:09:02;;;;;;;34.23;21.27;;;16.40;94.90;;;;;;5025614;28;20553;-71
2022/09/01 00:11:29;;;;;;;28.60;18.60;;;16.40;94.90;;;;;;5025555;28;20463;-71
2022/09/01 00:13:56;;;;;;;32.30;21.00;;;16.30;94.70;;;;;;5029240;28;20420;-71
2022/09/01 00:16:23;;;;;;;32.23;19.50;;;16.30;94.90;;;;;;5026695;28;20431;-71
2022/09/01 00:18:52;;;;;;;35.23;20.93;;;16.30;94.90;;;;;;5010689;28;20428;-71
2022/09/01 00:21:23;;;;;;;31.20;18.50;;;16.40;94.90;;;;;;5024219;28;20471;-71
2022/09/01 00:23:49;;;;;;;38.77;21.90;;;16.40;94.90;;;;;;5029523;28;20984;-71
2022/09/01 00:26:15;;;;;;;31.30;19.40;;;16.40;94.90;;;;;;5011799;28;20498;-70
2022/09/01 00:28:41;;;;;;;30.50;17.70;;;16.40;94.90;;;;;;5026766;28;20950;-71
2022/09/01 00:31:09;;;;;;;31.67;18.83;;;16.40;94.90;;;;;;5022973;28;20614;-72
2022/09/01 00:33:35;;;;;;;25.17;16.93;;;16.40;94.90;;;;;;5028770;28;20276;-71
2022/09/01 00:36:01;;;;;;;29.33;19.07;;;16.40;94.60;;;;;;5026004;28;20844;-70
2022/09/01 00:38:27;;;;;;;31.73;20.00;;;16.40;94.50;;;;;;5030539;28;20295;-70
2022/09/01 00:40:53;;;;;;;33.27;18.90;;;16.40;94.50;;;;;;5031494;28;20467;-70
2022/09/01 00:43:45;;;;;;;28.97;17.63;;;16.40;94.40;;;;;;5032201;28;20424;-70
2022/09/01 00:46:19;;;;;;;30.47;19.80;;;16.40;94.40;;;;;;5026881;28;21083;-70
2022/09/01 00:48:50;;;;;;;30.83;18.77;;;16.30;94.50;;;;;;5024993;28;20422;-70
2022/09/01 00:51:16;;;;;;;28.13;19.40;;;16.40;94.60;;;;;;5019373;28;20473;-69
2022/09/01 00:53:42;;;;;;;30.30;18.23;;;16.30;94.50;;;;;;5029278;28;20424;-69
2022/09/01 00:56:08;;;;;;;28.57;18.17;;;16.30;94.60;;;;;;5011060;28;20188;-70
2022/09/01 00:58:36;;;;;;;29.13;18.00;;;16.30;94.50;;;;;;5029029;28;20511;-71
2022/09/01 01:01:03;;;;;;;29.63;18.30;;;16.30;94.60;;;;;;5021190;28;20614;-71
2022/09/01 01:03:29;;;;;;;26.67;16.53;;;16.30;94.50;;;;;;5026367;28;20733;-69
2022/09/01 01:05:57;;;;;;;23.37;16.40;;;16.30;94.40;;;;;;5028544;28;20473;-71
2022/09/01 01:08:32;;;;;;;26.97;16.63;;;16.30;94.30;;;;;;5025788;28;20964;-71
2022/09/01 01:11:16;;;;;;;31.73;19.00;;;16.30;94.30;;;;;;5021936;28;20554;-71
2022/09/01 01:14:11;;;;;;;36.33;17.77;;;16.20;94.50;;;;;;5021599;28;20421;-71
2022/09/01 01:16:43;;;;;;;29.20;18.57;;;16.20;94.60;;;;;;5026685;28;20463;-71
2022/09/01 01:23:07;;;;;;;33.90;16.90;;;16.10;94.80;;;;;;5024698;28;20455;-72
2022/09/01 01:25:55;;;;;;;28.20;16.77;;;16.10;94.80;;;;;;5025912;28;20845;-71
2022/09/01 01:28:24;;;;;;;27.60;17.27;;;16.10;94.70;;;;;;5027749;28;20764;-71
2022/09/01 01:30:53;;;;;;;30.27;18.40;;;16.10;94.60;;;;;;5029736;28;20726;-71
2022/09/01 01:33:22;;;;;;;30.03;18.43;;;16.10;94.60;;;;;;5028842;28;20452;-71
2022/09/01 01:35:50;;;;;;;31.93;19.30;;;16.00;94.60;;;;;;5032712;28;20426;-71
2022/09/01 01:38:21;;;;;;;30.57;18.97;;;16.00;94.60;;;;;;5015380;28;20989;-71
2022/09/01 01:40:48;;;;;;;30.37;19.20;;;16.00;94.50;;;;;;5033725;28;20447;-72
2022/09/01 01:43:18;;;;;;;37.93;23.07;;;16.00;94.40;;;;;;5034235;28;20428;-72
2022/09/01 01:45:47;;;;;;;33.93;20.77;;;15.80;94.50;;;;;;5035780;28;20427;-71
2022/09/01 01:48:17;;;;;;;37.87;20.80;;;15.80;94.90;;;;;;5033809;28;20435;-71
2022/09/01 01:50:44;;;;;;;33.40;19.00;;;15.80;95.00;;;;;;5032177;28;20462;-72
2022/09/01 01:53:10;;;;;;;29.97;18.67;;;15.80;95.00;;;;;;5033347;28;20429;-71
2022/09/01 01:55:36;;;;;;;30.17;17.83;;;15.80;94.90;;;;;;5033977;28;20489;-72
2022/09/01 01:58:03;;;;;;;30.67;18.53;;;15.80;94.80;;;;;;5033907;28;20467;-71
2022/09/01 02:00:33;;;;;;;28.40;17.40;;;15.80;94.80;;;;;;5027747;28;20202;-71
2022/09/01 02:02:59;;;;;;;23.30;14.93;;;15.80;94.80;;;;;;5034483;28;21554;-69
2022/09/01 02:05:29;;;;;;;26.20;17.30;;;15.80;94.80;;;;;;5035387;28;20427;-70
2022/09/01 02:07:58;;;;;;;25.37;16.30;;;15.80;94.80;;;;;;5038923;28;20539;-70
2022/09/01 02:10:30;;;;;;;28.07;16.77;;;15.70;94.80;;;;;;5023270;28;20885;-69
2022/09/01 02:13:02;;;;;;;23.47;15.87;;;15.70;94.80;;;;;;5034654;28;20450;-69
2022/09/01 02:15:28;;;;;;;24.53;15.60;;;15.70;94.80;;;;;;5040118;28;20446;-71
2022/09/01 02:17:58;;;;;;;28.37;17.00;;;15.70;94.80;;;;;;5024055;28;20485;-70
2022/09/01 02:20:27;;;;;;;28.40;16.37;;;15.60;94.70;;;;;;5038336;28;20498;-69
2022/09/01 02:22:54;;;;;;;30.07;18.30;;;15.60;94.90;;;;;;5041661;28;20501;-69
2022/09/01 02:25:22;;;;;;;31.93;20.10;;;15.50;94.90;;;;;;5049539;28;20463;-70
2022/09/01 02:27:51;;;;;;;33.40;19.57;;;15.60;95.00;;;;;;5044820;28;20425;-70
2022/09/01 02:30:16;;;;;;;33.33;18.63;;;15.60;95.00;;;;;;5035064;28;20429;-69
2022/09/01 02:32:42;;;;;;;29.77;18.13;;;15.60;94.80;;;;;;5032330;28;20459;-70
2022/09/01 02:35:08;;;;;;;30.63;18.90;;;15.50;94.90;;;;;;5029869;28;20241;-69
2022/09/01 02:37:38;;;;;;;33.37;18.93;;;15.50;95.00;;;;;;5026967;28;20212;-69
2022/09/01 02:40:05;;;;;;;34.67;21.40;;;15.60;95.10;;;;;;5034302;28;21000;-70
2022/09/01 02:42:31;;;;;;;26.90;17.70;;;15.50;95.00;;;;;;5028281;28;20464;-71
2022/09/01 02:44:57;;;;;;;34.73;19.73;;;15.40;95.00;;;;;;5031274;28;20718;-70
2022/09/01 02:47:24;;;;;;;31.27;17.87;;;15.50;95.20;;;;;;5015032;28;20191;-70
2022/09/01 02:49:49;;;;;;;31.20;20.70;;;15.50;95.10;;;;;;5030847;28;20420;-71
2022/09/01 02:52:16;;;;;;;29.43;17.93;;;15.50;95.00;;;;;;5029447;28;20467;-70
2022/09/01 02:54:44;;;;;;;31.03;18.10;;;15.50;94.80;;;;;;5006955;28;20675;-69
2022/09/01 02:57:10;;;;;;;30.63;19.57;;;15.50;94.70;;;;;;5026102;28;20472;-71
2022/09/01 02:59:36;;;;;;;30.90;18.67;;;15.50;94.60;;;;;;5032319;28;20426;-68
2022/09/01 03:02:03;;;;;;;33.30;19.03;;;15.30;94.60;;;;;;5033332;28;20548;-69
2022/09/01 03:04:32;;;;;;;32.37;19.23;;;15.30;94.90;;;;;;5044903;28;20204;-70
2022/09/01 03:06:58;;;;;;;31.30;18.90;;;15.30;94.90;;;;;;5040067;28;20443;-70
2022/09/01 03:09:24;;;;;;;35.07;21.10;;;15.30;94.90;;;;;;5040150;28;20434;-69
2022/09/01 03:11:52;;;;;;;29.73;19.77;;;15.30;95.10;;;;;;5034911;28;20217;-70
2022/09/01 03:14:19;;;;;;;30.27;17.77;;;15.30;95.00;;;;;;5034063;28;20197;-68
2022/09/01 03:16:45;;;;;;;31.17;18.07;;;15.30;95.00;;;;;;5035388;28;20464;-69
2022/09/01 03:19:11;;;;;;;30.17;18.57;;;15.30;95.10;;;;;;5035805;28;20463;-70
2022/09/01 03:21:42;;;;;;;32.90;20.13;;;15.30;95.20;;;;;;5034255;28;20458;-68
2022/09/01 03:24:11;;;;;;;34.60;18.70;;;15.20;95.10;;;;;;5031474;28;20414;-70
2022/09/01 03:26:37;;;;;;;32.70;19.83;;;15.20;95.30;;;;;;5033922;28;20420;-68
2022/09/01 03:29:03;;;;;;;32.80;19.37;;;15.20;95.40;;;;;;5032070;28;20431;-70
2022/09/01 03:31:29;;;;;;;34.57;18.73;;;15.30;95.40;;;;;;5029392;28;20227;-72
2022/09/01 03:33:55;;;;;;;33.23;18.77;;;15.30;95.30;;;;;;5012290;28;20436;-69
2022/09/01 03:36:24;;;;;;;29.63;18.83;;;15.30;95.30;;;;;;5012916;28;20478;-68
2022/09/01 03:38:51;;;;;;;36.90;20.37;;;15.30;95.20;;;;;;5012281;28;20964;-71
2022/09/01 03:41:21;;;;;;;34.70;21.03;;;15.30;95.30;;;;;;5035696;28;20822;-70
2022/09/01 03:43:47;;;;;;;31.87;18.47;;;15.20;95.20;;;;;;5036028;28;20496;-71
2022/09/01 03:46:20;;;;;;;40.13;21.53;;;15.20;95.30;;;;;;5030750;28;20458;-71
2022/09/01 03:48:49;;;;;;;36.73;21.00;;;15.20;95.40;;;;;;5029948;28;20455;-71
2022/09/01 03:51:15;;;;;;;32.83;18.10;;;15.20;95.60;;;;;;5026955;28;20448;-68
2022/09/01 03:53:41;;;;;;;31.60;19.40;;;15.20;95.50;;;;;;5032034;28;20445;-69
2022/09/01 03:56:07;;;;;;;38.33;21.47;;;15.20;95.50;;;;;;5031797;28;20415;-69
2022/09/01 03:58:34;;;;;;;30.63;18.77;;;15.20;95.40;;;;;;5031712;28;20214;-69
2022/09/01 04:01:01;;;;;;;36.80;21.27;;;15.20;95.50;;;;;;5023076;28;20850;-69
2022/09/01 04:03:30;;;;;;;42.33;25.40;;;15.20;95.50;;;;;;5027228;28;20736;-71
2022/09/01 04:05:58;;;;;;;38.30;21.87;;;15.20;95.50;;;;;;5027689;28;20919;-68
2022/09/01 04:08:28;;;;;;;37.03;20.77;;;15.10;95.60;;;;;;5026694;28;20425;-68
2022/09/01 04:10:54;;;;;;;35.37;20.00;;;15.00;95.80;;;;;;5025190;28;20457;-69
2022/09/01 04:13:30;;;;;;;28.97;19.60;;;15.00;96.00;;;;;;5025890;28;20437;-68
2022/09/01 04:15:57;;;;;;;34.63;20.70;;;15.00;96.00;;;;;;5008242;28;20783;-69
2022/09/01 04:18:23;;;;;;;32.20;18.57;;;15.00;96.00;;;;;;5024619;28;20468;-69
2022/09/01 04:20:58;;;;;;;40.73;21.13;;;15.00;96.00;;;;;;5022032;28;20436;-69
2022/09/01 04:23:28;;;;;;;37.37;20.67;;;15.00;95.90;;;;;;5033368;28;20424;-70
2022/09/01 04:26:13;;;;;;;34.10;20.17;;;15.00;95.80;;;;;;5036110;28;20455;-71
2022/09/01 04:28:49;;;;;;;33.03;19.80;;;14.90;95.90;;;;;;5030858;28;20798;-70
2022/09/01 04:31:18;;;;;;;31.37;18.60;;;14.90;95.90;;;;;;5024204;28;20458;-70
2022/09/01 04:33:45;;;;;;;38.27;21.83;;;14.80;95.90;;;;;;5029815;28;20426;-69
2022/09/01 04:36:24;;;;;;;33.73;20.00;;;14.80;95.90;;;;;;5012337;28;20767;-69
2022/09/01 04:38:59;;;;;;;36.20;20.60;;;14.80;95.90;;;;;;5009844;28;20836;-68
2022/09/01 04:41:30;;;;;;;37.07;20.70;;;14.80;95.90;;;;;;5023078;28;20492;-69
2022/09/01 04:43:57;;;;;;;42.27;23.13;;;14.80;95.90;;;;;;5024996;28;20430;-72
2022/09/01 04:46:27;;;;;;;40.60;22.77;;;14.70;95.80;;;;;;5011886;28;21004;-68
2022/09/01 04:48:53;;;;;;;39.47;21.63;;;14.70;96.00;;;;;;5005095;28;20935;-69
2022/09/01 04:51:21;;;;;;;35.63;19.80;;;14.60;96.10;;;;;;5009955;28;20452;-69
2022/09/01 04:53:47;;;;;;;39.40;21.07;;;14.70;96.10;;;;;;5029534;28;20423;-71
2022/09/01 04:56:18;;;;;;;38.70;19.77;;;14.70;96.10;;;;;;5029502;28;20459;-69
2022/09/01 04:58:48;;;;;;;39.30;20.83;;;14.70;96.10;;;;;;5031091;28;20424;-70
2022/09/01 05:01:17;;;;;;;32.50;20.00;;;14.70;96.10;;;;;;5008839;28;20539;-68
2022/09/01 05:03:44;;;;;;;38.87;23.23;;;14.70;96.10;;;;;;5029582;28;20412;-71
2022/09/01 05:06:18;;;;;;;35.97;20.30;;;14.70;96.20;;;;;;5027368;28;20405;-70
2022/09/01 05:08:45;;;;;;;37.67;21.30;;;14.70;96.40;;;;;;5011725;28;20793;-70
2022/09/01 05:11:15;;;;;;;34.60;20.60;;;14.80;96.40;;;;;;5008603;28;20503;-69
2022/09/01 05:13:44;;;;;;;35.70;20.60;;;14.90;96.40;;;;;;5027082;28;20426;-69
2022/09/01 05:16:14;;;;;;;32.80;19.90;;;14.90;96.10;;;;;;5008850;28;20936;-71
2022/09/01 05:18:46;;;;;;;34.30;20.40;;;14.90;95.60;;;;;;5010044;28;20470;-69
2022/09/01 05:21:15;;;;;;;33.73;21.20;;;14.90;95.40;;;;;;5025069;28;20491;-69
2022/09/01 05:23:42;;;;;;;33.07;19.47;;;14.90;95.50;;;;;;5030655;28;20439;-70
2022/09/01 05:26:25;;;;;;;33.97;19.83;;;14.90;95.60;;;;;;5010302;28;20424;-69
2022/09/01 05:28:54;;;;;;;33.23;18.37;;;15.10;95.60;;;;;;5025866;28;20475;-70
2022/09/01 05:31:21;;;;;;;35.00;20.30;;;15.10;95.50;;;;;;5009604;28;20478;-70
2022/09/01 05:33:49;;;;;;;43.50;22.20;;;15.20;95.40;;;;;;5026500;28;20418;-69
2022/09/01 05:36:18;;;;;;;31.67;19.93;;;15.20;95.30;;;;;;5017049;28;20515;-70
2022/09/01 05:38:46;;;;;;;33.57;20.30;;;15.20;95.30;;;;;;5032740;28;20477;-70
2022/09/01 05:41:13;;;;;;;35.97;19.80;;;15.20;95.40;;;;;;5026815;28;20455;-69
2022/09/01 05:43:45;;;;;;;38.00;22.93;;;15.30;95.40;;;;;;5036943;28;20519;-73
2022/09/01 05:46:15;;;;;;;37.13;23.47;;;15.30;95.30;;;;;;5037921;28;20412;-67
2022/09/01 05:48:41;;;;;;;39.73;22.73;;;15.30;95.10;;;;;;5029836;28;20937;-69
2022/09/01 05:51:08;;;;;;;35.53;21.03;;;15.30;95.30;;;;;;5026777;28;20463;-70
2022/09/01 05:53:34;;;;;;;33.57;21.27;;;15.30;95.50;;;;;;5029410;28;20508;-72
2022/09/01 05:56:06;;;;;;;37.97;22.53;;;15.40;95.40;;;;;;5030687;28;20485;-72
2022/09/01 05:58:36;;;;;;;36.00;20.23;;;15.50;95.40;;;;;;5030261;28;20510;-69
2022/09/01 06:01:02;;;;;;;31.83;20.03;;;15.60;95.40;;;;;;5023536;28;20809;-68
2022/09/01 06:03:29;;;;;;;38.70;22.33;;;15.70;95.20;;;;;;5026762;28;20486;-69
2022/09/01 06:06:00;;;;;;;36.13;22.07;;;15.70;94.90;;;;;;5007961;28;20184;-68
2022/09/01 06:08:27;;;;;;;36.37;21.70;;;15.80;94.60;;;;;;5029315;28;20846;-70
2022/09/01 06:10:54;;;;;;;37.30;21.27;;;15.90;94.40;;;;;;5025473;28;20467;-70
2022/09/01 06:13:20;;;;;;;36.87;22.67;;;15.90;94.30;;;;;;5027374;28;20427;-71
2022/09/01 06:15:48;;;;;;;41.73;23.77;;;16.00;94.00;;;;;;5026171;28;20481;-69
2022/09/01 06:18:14;;;;;;;40.07;23.47;;;16.00;93.60;;;;;;5027993;28;20655;-69
2022/09/01 06:20:45;;;;;;;41.90;23.30;;;16.00;93.70;;;;;;5024199;28;20431;-73
2022/09/01 06:23:14;;;;;;;36.10;20.40;;;16.00;93.80;;;;;;5013378;28;20426;-70
2022/09/01 06:25:42;;;;;;;33.30;20.30;;;16.10;93.80;;;;;;5027603;28;20417;-73
2022/09/01 06:28:10;;;;;;;32.63;20.87;;;16.30;93.80;;;;;;5026620;28;20427;-71
2022/09/01 06:30:37;;;;;;;41.20;21.90;;;16.40;93.60;;;;;;5029493;28;20427;-71
2022/09/01 06:33:08;;;;;;;37.47;22.13;;;16.50;93.20;;;;;;5030249;28;20465;-69
2022/09/01 06:35:35;;;;;;;38.10;20.57;;;16.60;93.00;;;;;;5031171;28;20420;-70
2022/09/01 06:38:01;;;;;;;37.90;20.53;;;16.50;92.00;;;;;;5031292;28;20467;-69
2022/09/01 06:40:27;;;;;;;42.50;22.67;;;16.40;92.20;;;;;;5011410;28;20503;-68
2022/09/01 06:42:53;;;;;;;41.27;21.87;;;16.50;92.40;;;;;;5030633;28;20573;-69
2022/09/01 06:45:22;;;;;;;40.40;21.83;;;16.60;92.10;;;;;;5029858;28;20505;-70
2022/09/01 06:47:49;;;;;;;41.97;23.30;;;16.60;92.00;;;;;;5030052;28;20342;-68
2022/09/01 06:50:18;;;;;;;37.67;22.23;;;16.50;92.00;;;;;;5027790;28;20480;-70
2022/09/01 06:52:44;;;;;;;41.23;22.40;;;16.40;92.20;;;;;;5007857;28;20471;-69
2022/09/01 06:55:10;;;;;;;38.63;21.30;;;16.40;92.50;;;;;;5026408;28;20983;-71
2022/09/01 06:57:38;;;;;;;39.93;22.10;;;16.50;92.70;;;;;;5028399;28;20849;-69
2022/09/01 07:00:19;;;;;;;31.73;19.53;;;16.80;92.40;;;;;;5028486;28;20427;-69
2022/09/01 07:02:53;;;;;;;33.73;19.57;;;17.00;92.20;;;;;;5023799;28;20463;-68
2022/09/01 07:05:20;;;;;;;38.40;19.57;;;17.10;90.90;;;;;;5031804;28;20439;-70
2022/09/01 07:07:50;;;;;;;31.30;19.37;;;17.10;90.90;;;;;;5024720;28;20431;-69
2022/09/01 07:10:23;;;;;;;33.10;18.77;;;17.20;90.80;;;;;;5026225;28;20466;-72
2022/09/01 07:13:00;;;;;;;31.90;18.80;;;17.40;90.70;;;;;;5021960;28;20463;-69
2022/09/01 07:15:26;;;;;;;33.83;18.77;;;17.70;89.90;;;;;;5020383;28;20442;-70
2022/09/01 07:17:55;;;;;;;33.27;20.00;;;17.60;89.20;;;;;;5025155;28;20479;-70
2022/09/01 07:20:28;;;;;;;39.43;20.73;;;17.70;89.00;;;;;;5007993;28;20456;-70
2022/09/01 07:22:55;;;;;;;33.07;18.53;;;17.50;89.20;;;;;;5024801;28;20433;-69
2022/09/01 07:25:21;;;;;;;35.20;18.70;;;17.20;90.20;;;;;;5030254;28;20425;-70
2022/09/01 07:27:50;;;;;;;34.27;19.43;;;17.20;90.40;;;;;;5031157;28;20769;-68
2022/09/01 07:30:17;;;;;;;30.23;17.43;;;17.40;90.40;;;;;;5024373;28;20240;-69
2022/09/01 07:32:45;;;;;;;31.63;17.83;;;17.40;89.70;;;;;;5023808;28;20456;-70
2022/09/01 07:35:12;;;;;;;32.07;18.93;;;17.50;89.30;;;;;;5023173;28;20436;-69
2022/09/01 07:37:38;;;;;;;32.03;18.10;;;17.40;89.60;;;;;;5028171;28;20474;-70
2022/09/01 07:40:07;;;;;;;28.33;17.30;;;17.40;90.00;;;;;;5025743;28;20421;-69
2022/09/01 07:42:33;;;;;;;31.73;18.17;;;17.40;89.70;;;;;;5015443;28;20212;-69
2022/09/01 07:44:59;;;;;;;24.93;16.40;;;17.40;89.90;;;;;;5014405;28;20452;-70
2022/09/01 07:47:28;;;;;;;25.97;16.20;;;17.40;89.90;;;;;;5034340;28;20820;-69
2022/09/01 07:49:54;;;;;;;25.87;16.20;;;17.60;89.90;;;;;;5036353;28;20190;-69
2022/09/01 07:52:20;;;;;;;25.97;16.47;;;17.80;88.90;;;;;;5031276;28;21259;-69
2022/09/01 07:54:46;;;;;;;31.67;16.73;;;17.90;88.40;;;;;;5032663;28;20425;-68
2022/09/01 07:57:11;;;;;;;21.70;13.70;;;18.10;87.60;;;;;;5016599;28;20219;-72
2022/09/01 07:59:37;;;;;;;21.50;14.20;;;18.10;87.00;;;;;;5032606;28;20184;-70
2022/09/01 08:02:04;;;;;;;22.80;14.90;;;18.10;87.10;;;;;;5018809;28;20228;-70
2022/09/01 08:04:31;;;;;;;24.67;14.40;;;18.30;86.20;;;;;;5035585;28;20429;-69
2022/09/01 08:06:56;;;;;;;22.50;14.93;;;18.40;86.50;;;;;;5032682;28;20422;-69
2022/09/01 08:09:22;;;;;;;19.27;13.07;;;18.40;86.00;;;;;;5036303;28;20529;-68
2022/09/01 08:11:48;;;;;;;22.90;12.30;;;18.70;85.70;;;;;;5036953;28;20233;-69
2022/09/01 08:14:14;;;;;;;22.80;13.27;;;18.80;84.30;;;;;;5041583;28;20429;-71
2022/09/01 08:16:39;;;;;;;17.43;11.10;;;18.90;84.40;;;;;;5041513;28;20453;-72
2022/09/01 08:19:05;;;;;;;17.50;11.40;;;19.10;84.00;;;;;;5032496;28;20187;-71
2022/09/01 08:21:31;;;;;;;24.67;13.90;;;19.00;83.10;;;;;;5023536;28;20221;-71
2022/09/01 08:23:56;;;;;;;18.37;11.77;;;19.00;83.00;;;;;;5028567;28;20544;-73
2022/09/01 08:26:24;;;;;;;17.00;11.30;;;19.20;83.10;;;;;;5030283;28;20421;-71
2022/09/01 08:28:50;;;;;;;15.70;10.70;;;19.40;82.20;;;;;;5029297;28;20200;-71
2022/09/01 08:31:19;;;;;;;21.50;11.67;;;19.40;81.70;;;;;;5026081;28;20460;-71
2022/09/01 08:33:46;;;;;;;19.20;11.40;;;19.50;81.20;;;;;;5030989;28;20765;-71
2022/09/01 08:36:13;;;;;;;19.77;12.20;;;19.50;80.30;;;;;;5030269;28;20420;-71
2022/09/01 08:38:40;;;;;;;22.03;11.77;;;19.60;80.80;;;;;;5025510;28;20461;-73
2022/09/01 08:41:16;;;;;;;18.10;12.37;;;19.50;80.90;;;;;;5024431;28;20464;-72
2022/09/01 08:44:20;;;;;;;19.13;11.30;;;19.50;81.20;;;;;;5028162;28;20428;-72
2022/09/01 08:46:46;;;;;;;19.37;10.67;;;19.40;81.10;;;;;;5029939;28;20507;-74
2022/09/01 08:49:19;;;;;;;17.63;12.07;;;19.50;81.50;;;;;;5010915;28;20446;-73
2022/09/01 08:52:01;;;;;;;19.83;11.10;;;19.50;81.20;;;;;;5026174;28;20487;-74
2022/09/01 08:54:49;;;;;;;17.00;11.10;;;19.70;80.80;;;;;;5025969;28;20503;-72
2022/09/01 08:57:35;;;;;;;17.70;11.80;;;19.50;81.10;;;;;;5028602;28;20476;-73
2022/09/01 09:00:01;;;;;;;15.73;10.77;;;19.60;80.30;;;;;;5032645;28;20458;-72
2022/09/01 09:02:48;;;;;;;17.70;11.30;;;19.40;81.20;;;;;;5028743;28;20466;-72
2022/09/01 09:05:42;;;;;;;19.80;11.70;;;19.30;81.50;;;;;;5028686;28;20446;-74
2022/09/01 09:08:34;;;;;;;18.83;11.60;;;19.50;81.80;;;;;;5027289;28;20431;-74
2022/09/01 09:11:02;;;;;;;16.03;9.57;;;19.50;81.10;;;;;;5012872;28;20537;-74
2022/09/01 09:13:38;;;;;;;17.90;10.10;;;19.50;81.10;;;;;;5027936;28;20923;-73
2022/09/01 09:16:20;;;;;;;13.27;9.20;;;19.70;79.90;;;;;;5026438;28;20446;-74
2022/09/01 09:18:55;;;;;;;16.97;10.10;;;19.70;80.30;;;;;;5027754;28;20508;-73
2022/09/01 09:21:42;;;;;;;15.20;9.73;;;19.90;79.50;;;;;;5025942;28;20810;-73
2022/09/01 09:24:28;;;;;;;12.10;9.37;;;20.10;78.40;;;;;;5024230;28;20415;-72
2022/09/01 09:26:58;;;;;;;16.00;10.47;;;20.10;77.70;;;;;;5026470;28;20467;-73
2022/09/01 09:29:26;;;;;;;14.90;10.63;;;20.00;78.00;;;;;;5008815;28;20523;-73
2022/09/01 09:32:05;;;;;;;17.50;10.50;;;19.90;78.40;;;;;;5016382;28;20876;-74
2022/09/01 09:34:35;;;;;;;14.17;9.23;;;19.90;78.40;;;;;;5024921;28;20423;-73
2022/09/01 09:37:18;;;;;;;15.33;10.10;;;19.90;78.90;;;;;;5023594;28;20503;-73
2022/09/01 09:39:46;;;;;;;11.93;9.20;;;20.00;78.90;;;;;;5021964;28;20420;-73
2022/09/01 09:42:14;;;;;;;16.17;10.40;;;20.10;78.90;;;;;;5026342;28;20993;-73
2022/09/01 09:44:44;;;;;;;14.40;10.87;;;20.20;78.30;;;;;;5027510;28;20440;-74
2022/09/01 09:47:29;;;;;;;16.00;10.47;;;20.10;78.70;;;;;;5032910;28;20431;-74
2022/09/01 09:50:20;;;;;;;15.00;9.43;;;20.10;78.10;;;;;;5031229;28;20429;-74
2022/09/01 09:52:47;;;;;;;16.43;9.90;;;20.40;77.30;;;;;;5027055;28;20836;-74
2022/09/01 09:55:29;;;;;;;12.00;8.83;;;20.50;76.80;;;;;;5030784;28;20520;-70
2022/09/01 09:58:00;;;;;;;12.67;8.77;;;20.50;76.40;;;;;;5029776;28;21102;-71
2022/09/01 10:00:33;;;;;;;13.70;9.30;;;20.60;75.70;;;;;;5033492;28;20421;-70
2022/09/01 10:03:08;;;;;;;14.53;9.40;;;20.60;75.90;;;;;;5036771;28;20463;-69
2022/09/01 10:05:47;;;;;;;12.13;8.83;;;20.80;74.60;;;;;;5038145;28;20511;-71
2022/09/01 10:08:36;;;;;;;11.43;8.00;;;20.70;74.30;;;;;;5035209;28;20897;-70
2022/09/01 10:11:04;;;;;;;13.60;8.70;;;20.80;73.70;;;;;;5012041;28;20484;-72
2022/09/01 10:13:31;;;;;;;13.20;7.83;;;20.80;73.60;;;;;;5033416;28;20447;-69
2022/09/01 10:16:03;;;;;;;9.80;7.73;;;20.90;73.60;;;;;;5035225;28;20434;-72
2022/09/01 10:18:38;;;;;;;11.57;8.67;;;21.10;73.20;;;;;;5030329;28;20560;-71
2022/09/01 10:21:09;;;;;;;12.37;8.27;;;21.20;72.40;;;;;;5033940;28;20465;-71
2022/09/01 10:23:37;;;;;;;11.80;7.67;;;21.30;72.10;;;;;;5028050;28;20421;-70
2022/09/01 10:26:12;;;;;;;9.83;7.23;;;21.30;71.70;;;;;;5028743;28;20934;-72
2022/09/01 10:28:51;;;;;;;12.93;8.90;;;21.30;70.70;;;;;;5025239;28;20519;-70
2022/09/01 10:31:17;;;;;;;12.07;8.47;;;21.20;71.10;;;;;;5023890;28;20456;-71
2022/09/01 10:33:43;;;;;;;9.20;7.10;;;20.90;72.30;;;;;;5032722;28;20432;-73
2022/09/01 10:36:09;;;;;;;10.60;8.20;;;20.90;72.70;;;;;;5033291;28;20429;-72
2022/09/01 10:38:35;;;;;;;9.43;6.93;;;20.70;72.60;;;;;;5032252;28;20215;-71
2022/09/01 10:41:07;;;;;;;9.57;7.47;;;20.80;73.20;;;;;;5027552;28;21620;-71
2022/09/01 10:43:47;;;;;;;9.50;6.30;;;21.10;72.00;;;;;;5029718;28;20184;-71
2022/09/01 10:46:22;;;;;;;10.10;7.03;;;21.40;70.20;;;;;;5030980;28;20427;-71
2022/09/01 10:48:50;;;;;;;13.13;6.73;;;21.80;69.80;;;;;;5030322;28;20414;-71
2022/09/01 10:51:16;;;;;;;8.30;6.97;;;22.40;67.90;;;;;;5024974;28;20477;-71
2022/09/01 10:53:49;;;;;;;9.20;6.70;;;22.80;66.00;;;;;;5028196;28;20416;-73
2022/09/01 10:56:21;;;;;;;7.90;6.20;;;22.60;65.30;;;;;;5027480;28;20206;-72
2022/09/01 10:59:03;;;;;;;7.80;5.63;;;22.40;65.70;;;;;;5029523;28;20474;-72
2022/09/01 11:01:43;;;;;;;8.03;5.90;;;22.30;66.40;;;;;;5020447;28;20555;-71
2022/09/01 11:04:11;;;;;;;7.10;5.90;;;22.70;65.40;;;;;;5031495;28;20904;-71
2022/09/01 11:07:05;;;;;;;8.73;5.50;;;23.20;64.40;;;;;;5028662;28;20469;-72
2022/09/01 11:09:38;;;;;;;8.37;5.67;;;23.20;64.40;;;;;;5011357;28;20449;-72
2022/09/01 11:12:40;;;;;;;8.00;5.37;;;23.40;63.20;;;;;;5029877;28;20457;-73
2022/09/01 11:15:35;;;;;;;7.43;5.57;;;23.60;62.90;;;;;;5026383;28;21002;-70
2022/09/01 11:18:02;;;;;;;7.60;6.27;;;23.20;64.20;;;;;;5027718;28;20457;-71
2022/09/01 11:20:36;;;;;;;8.90;6.00;;;23.10;65.00;;;;;;5025633;28;20461;-71
2022/09/01 11:23:24;;;;;;;8.20;6.60;;;22.80;66.30;;;;;;5023351;28;20435;-72
2022/09/01 11:25:53;;;;;;;9.20;7.50;;;22.40;68.00;;;;;;5028402;28;20833;-71
2022/09/01 11:28:30;;;;;;;12.70;7.10;;;22.30;68.00;;;;;;5033336;28;20852;-71
2022/09/01 11:31:10;;;;;;;9.40;7.10;;;22.00;69.40;;;;;;5028369;28;20510;-72
2022/09/01 11:33:58;;;;;;;8.00;6.07;;;21.90;69.90;;;;;;5026944;28;20930;-72
2022/09/01 11:36:47;;;;;;;8.60;6.67;;;22.40;69.10;;;;;;5029302;28;20518;-73
2022/09/01 11:39:18;;;;;;;8.50;5.70;;;22.80;66.70;;;;;;5025186;28;20513;-71
2022/09/01 11:42:02;;;;;;;7.67;5.63;;;23.20;65.70;;;;;;5025101;28;20606;-72
2022/09/01 11:44:39;;;;;;;7.97;5.70;;;23.30;64.70;;;;;;5029573;28;20953;-72
2022/09/01 11:47:15;;;;;;;7.50;5.67;;;23.10;64.80;;;;;;5027567;28;20993;-72
2022/09/01 11:49:55;;;;;;;8.43;5.90;;;23.00;65.30;;;;;;5034421;28;20409;-72
2022/09/01 11:52:25;;;;;;;7.17;5.13;;;23.10;65.10;;;;;;5037622;28;20464;-72
2022/09/01 11:54:51;;;;;;;7.03;5.30;;;23.00;65.70;;;;;;5030706;28;20527;-71
2022/09/01 11:57:20;;;;;;;6.53;5.50;;;22.90;65.60;;;;;;5009648;28;20564;-72
2022/09/01 11:59:45;;;;;;;7.30;5.37;;;23.10;65.60;;;;;;5027243;28;20215;-74
2022/09/01 12:02:23;;;;;;;9.20;6.53;;;23.00;64.70;;;;;;5023915;28;20860;-72
2022/09/01 12:04:52;;;;;;;6.93;5.77;;;23.00;65.10;;;;;;5024299;28;20189;-73
2022/09/01 12:07:49;;;;;;;7.50;5.27;;;23.10;65.30;;;;;;5025965;28;20433;-71
2022/09/01 12:10:18;;;;;;;6.50;5.50;;;23.40;64.40;;;;;;5024806;28;20931;-72
2022/09/01 12:12:43;;;;;;;6.70;5.50;;;23.90;63.10;;;;;;5023539;28;20520;-71
2022/09/01 12:15:24;;;;;;;6.20;4.90;;;24.10;62.30;;;;;;5030894;28;20427;-72
2022/09/01 12:17:51;;;;;;;6.77;5.33;;;24.40;61.70;;;;;;5030506;28;20215;-72
2022/09/01 12:20:22;;;;;;;6.40;5.23;;;24.60;60.40;;;;;;5030796;28;20645;-70
2022/09/01 12:22:48;;;;;;;7.53;5.83;;;24.50;60.30;;;;;;5023417;28;20490;-71
2022/09/01 12:25:27;;;;;;;8.07;5.80;;;24.10;61.00;;;;;;5028456;28;20448;-71
2022/09/01 12:27:54;;;;;;;7.77;5.80;;;24.20;61.00;;;;;;5027582;28;20197;-72
2022/09/01 12:30:20;;;;;;;6.00;5.30;;;23.90;62.20;;;;;;5030403;28;20924;-73
2022/09/01 12:32:46;;;;;;;6.70;5.00;;;24.00;62.30;;;;;;5030790;28;20568;-71
2022/09/01 12:35:26;;;;;;;7.93;5.33;;;24.10;62.30;;;;;;5031096;28;20419;-72
2022/09/01 12:38:11;;;;;;;7.87;6.00;;;24.00;62.30;;;;;;5026958;28;20888;-70
2022/09/01 12:40:37;;;;;;;7.10;5.90;;;24.00;62.00;;;;;;5025583;28;20424;-72
2022/09/01 12:43:02;;;;;;;9.17;6.43;;;23.70;63.10;;;;;;5026183;28;20871;-71
2022/09/01 12:45:46;;;;;;;8.47;5.70;;;23.40;63.70;;;;;;5026707;28;20210;-71
2022/09/01 12:48:34;;;;;;;7.60;5.97;;;23.30;64.80;;;;;;5023553;28;20182;-72
2022/09/01 12:51:22;;;;;;;8.90;5.70;;;23.20;65.00;;;;;;5026806;28;20507;-71
2022/09/01 12:53:55;;;;;;;6.10;5.27;;;23.10;64.40;;;;;;5023412;28;20437;-72